createdAt,value
2022-11-28T00:02:55.434Z,86.98
2022-11-28T00:06:06.332Z,86.88
2022-11-28T00:09:13.416Z,86.91
2022-11-28T00:12:19.584Z,86.95
2022-11-28T00:15:25.724Z,86.92
2022-11-28T00:18:32.558Z,86.91
2022-11-28T00:21:39.061Z,86.99
2022-11-28T00:24:45.273Z,87.13
2022-11-28T00:27:51.545Z,87.05
2022-11-28T00:30:56.172Z,87.01
2022-11-28T00:34:03.050Z,87.05
2022-11-28T00:37:09.020Z,87.13
2022-11-28T00:40:15.367Z,87.19
2022-11-28T00:43:21.449Z,87.25
2022-11-28T00:46:28.549Z,87.07
2022-11-28T00:49:34.656Z,86.99
2022-11-28T00:52:40.840Z,86.95
2022-11-28T00:55:47.225Z,86.93
2022-11-28T00:58:53.791Z,86.92
2022-11-28T01:01:59.907Z,86.99
2022-11-28T01:05:06.598Z,87.19
2022-11-28T01:08:12.891Z,87.24
2022-11-28T01:11:17.445Z,87.17
2022-11-28T01:14:25.063Z,87.06
2022-11-28T01:17:31.188Z,87.04
2022-11-28T01:20:37.250Z,87.02
2022-11-28T01:23:43.324Z,87.05
2022-11-28T01:26:49.557Z,87.07
2022-11-28T01:29:55.836Z,87.12
2022-11-28T01:33:00.336Z,86.98
2022-11-28T01:36:07.969Z,87.16
2022-11-28T01:39:15.926Z,87.10
2022-11-28T01:42:22.973Z,87.22
2022-11-28T01:45:36.227Z,86.99
2022-11-28T01:48:44.832Z,87.01
2022-11-28T01:51:56.053Z,87.10
2022-11-28T01:55:03.513Z,87.07
2022-11-28T01:58:10.778Z,86.94
2022-11-28T02:01:18.029Z,87.22
2022-11-28T02:04:27.152Z,87.10
2022-11-28T02:07:33.573Z,87.02
2022-11-28T02:10:51.537Z,87.22
2022-11-28T02:14:08.523Z,87.19
2022-11-28T02:17:23.779Z,87.07
2022-11-28T02:20:59.115Z,86.81
2022-11-28T02:24:41.385Z,86.94
2022-11-28T02:28:13.876Z,87.17
2022-11-28T02:31:36.623Z,87.19
2022-11-28T02:34:52.296Z,87.02
2022-11-28T02:38:10.542Z,86.91
2022-11-28T02:41:27.132Z,87.14
2022-11-28T02:44:40.073Z,87.14
2022-11-28T02:47:51.381Z,87.17
2022-11-28T02:51:02.623Z,87.17
2022-11-28T02:54:11.811Z,86.91
2022-11-28T02:57:17.873Z,87.28
2022-11-28T03:00:30.761Z,87.23
2022-11-28T03:03:49.933Z,87.21
2022-11-28T03:07:06.720Z,87.21
2022-11-28T03:10:24.736Z,87.31
2022-11-28T03:13:47.603Z,87.34
2022-11-28T03:17:08.726Z,87.28
2022-11-28T03:20:24.914Z,87.20
2022-11-28T03:23:34.724Z,87.21
2022-11-28T03:26:49.474Z,87.30
2022-11-28T03:30:01.910Z,87.39
2022-11-28T03:33:09.780Z,87.19
2022-11-28T03:36:22.697Z,87.18
2022-11-28T03:39:33.436Z,87.10
2022-11-28T03:42:43.829Z,87.31
2022-11-28T03:45:53.564Z,87.44
2022-11-28T03:49:02.221Z,87.24
2022-11-28T03:52:11.651Z,87.36
2022-11-28T03:55:23.564Z,87.22
2022-11-28T03:58:36.150Z,87.38
2022-11-28T04:01:53.849Z,87.47
2022-11-28T04:05:04.752Z,87.21
2022-11-28T04:08:18.589Z,87.30
2022-11-28T04:11:31.003Z,87.24
2022-11-28T04:14:39.764Z,87.45
2022-11-28T04:17:52.307Z,87.41
2022-11-28T04:21:04.724Z,87.36
2022-11-28T04:24:16.346Z,87.41
2022-11-28T04:27:25.446Z,87.42
2022-11-28T04:30:31.599Z,87.36
2022-11-28T04:33:41.058Z,87.32
2022-11-28T04:36:50.825Z,87.01
2022-11-28T04:39:58.119Z,87.34
2022-11-28T04:43:09.810Z,87.47
2022-11-28T04:46:19.462Z,87.60
2022-11-28T04:49:27.707Z,87.43
2022-11-28T04:52:41.611Z,87.50
2022-11-28T04:55:53.464Z,87.29
2022-11-28T04:59:01.618Z,87.35
2022-11-28T05:02:10.032Z,87.53
2022-11-28T05:05:19.384Z,87.51
2022-11-28T05:08:26.534Z,87.61
2022-11-28T05:11:33.266Z,87.60
2022-11-28T05:14:41.123Z,87.61
2022-11-28T05:17:47.904Z,87.52
2022-11-28T05:20:53.896Z,87.48
2022-11-28T05:24:00.217Z,87.56
2022-11-28T05:27:04.618Z,87.42
2022-11-28T05:30:14.181Z,87.22
2022-11-28T05:33:20.228Z,87.43
2022-11-28T05:36:26.647Z,87.55
2022-11-28T05:39:33.141Z,87.66
2022-11-28T05:42:39.485Z,87.66
2022-11-28T05:45:44.587Z,87.62
2022-11-28T05:48:50.889Z,87.62
2022-11-28T05:51:57.027Z,87.85
2022-11-28T05:55:03.247Z,87.76
2022-11-28T05:58:09.852Z,87.67
2022-11-28T06:01:18.360Z,87.53
2022-11-28T06:04:24.589Z,87.58
2022-11-28T06:07:30.825Z,87.46
2022-11-28T06:10:35.692Z,87.58
2022-11-28T06:13:41.867Z,87.65
2022-11-28T06:16:47.885Z,87.67
2022-11-28T06:19:54.126Z,87.67
2022-11-28T06:23:00.143Z,87.46
2022-11-28T06:26:09.885Z,87.58
2022-11-28T06:29:16.303Z,87.68
2022-11-28T06:32:22.470Z,87.55
2022-11-28T06:35:28.696Z,87.54
2022-11-28T06:38:35.327Z,87.68
2022-11-28T06:41:41.597Z,87.62
2022-11-28T06:44:47.671Z,87.74
2022-11-28T06:47:53.838Z,87.54
2022-11-28T06:51:06.068Z,87.75
2022-11-28T06:54:12.678Z,87.63
2022-11-28T06:57:19.129Z,87.68
2022-11-28T07:00:25.487Z,87.66
2022-11-28T07:03:29.997Z,87.80
2022-11-28T07:06:36.773Z,87.92
2022-11-28T07:09:43.192Z,87.93
2022-11-28T07:12:54.207Z,87.98
2022-11-28T07:16:00.302Z,87.82
2022-11-28T07:19:06.996Z,87.71
2022-11-28T07:34:50.326Z,87.52
2022-11-28T07:37:53.992Z,87.45
2022-11-28T07:41:03.667Z,87.50
2022-11-28T07:44:07.279Z,87.74
2022-11-28T07:47:10.715Z,87.57
2022-11-28T07:50:14.078Z,87.88
2022-11-28T07:53:17.687Z,87.96
2022-11-28T07:56:22.254Z,87.83
2022-11-28T07:59:25.723Z,87.66
2022-11-28T08:02:31.732Z,87.73
2022-11-28T08:05:35.213Z,87.95
2022-11-28T08:08:38.709Z,88.01
2022-11-28T08:11:42.588Z,88.06
2022-11-28T08:14:46.190Z,88.11
2022-11-28T08:17:49.693Z,88.14
2022-11-28T08:20:52.961Z,88.03
2022-11-28T08:23:58.944Z,88.08
2022-11-28T08:27:02.373Z,88.13
2022-11-28T08:30:08.816Z,88.04
2022-11-28T08:33:13.239Z,87.99
2022-11-28T08:36:18.611Z,88.07
2022-11-28T08:39:24.955Z,88.08
2022-11-28T08:42:29.676Z,88.03
2022-11-28T08:45:34.429Z,87.85
2022-11-28T08:48:38.627Z,87.72
2022-11-28T08:51:42.137Z,87.76
2022-11-28T08:54:45.846Z,87.76
2022-11-28T08:57:49.444Z,87.75
2022-11-28T09:00:52.880Z,87.75
2022-11-28T09:03:57.003Z,87.64
2022-11-28T09:07:00.512Z,87.63
2022-11-28T09:10:05.948Z,87.59
2022-11-28T09:13:09.816Z,87.53
2022-11-28T09:16:14.334Z,87.49
2022-11-28T09:19:17.833Z,87.63
2022-11-28T09:22:21.265Z,87.79
2022-11-28T09:25:24.781Z,87.61
2022-11-28T09:28:28.318Z,87.33
2022-11-28T09:31:31.825Z,87.37
2022-11-28T09:34:35.239Z,87.26
2022-11-28T09:37:38.573Z,87.18
2022-11-28T09:40:44.498Z,86.78
2022-11-28T09:43:54.545Z,86.84
2022-11-28T09:47:02.155Z,86.72
2022-11-28T09:50:14.769Z,86.67
2022-11-28T09:53:24.454Z,86.57
2022-11-28T09:56:28.833Z,86.19
2022-11-28T09:59:32.577Z,85.86
2022-11-28T10:02:43.416Z,86.02
2022-11-28T10:05:53.470Z,85.86
2022-11-28T10:09:15.390Z,85.90
2022-11-28T10:12:33.035Z,85.89
2022-11-28T10:15:44.417Z,85.86
2022-11-28T10:18:50.772Z,85.96
2022-11-28T10:21:59.305Z,85.61
2022-11-28T10:25:11.214Z,85.44
2022-11-28T10:28:18.147Z,85.30
2022-11-28T10:31:31.830Z,85.45
2022-11-28T10:34:41.358Z,85.30
2022-11-28T10:37:44.978Z,85.28
2022-11-28T10:40:55.863Z,85.15
2022-11-28T10:44:06.628Z,84.85
2022-11-28T10:47:20.263Z,84.65
2022-11-28T10:50:33.124Z,84.61
2022-11-28T10:53:49.309Z,84.50
2022-11-28T10:56:56.289Z,84.37
2022-11-28T11:00:06.317Z,84.14
2022-11-28T11:03:16.572Z,83.89
2022-11-28T11:06:20.078Z,83.59
2022-11-28T11:09:23.580Z,83.66
2022-11-28T11:12:31.281Z,83.87
2022-11-28T11:15:35.631Z,83.83
2022-11-28T11:18:53.949Z,83.45
2022-11-28T11:22:03.810Z,83.48
2022-11-28T11:25:13.951Z,83.41
2022-11-28T11:28:33.740Z,82.95
2022-11-28T11:31:43.940Z,82.80
2022-11-28T11:34:47.884Z,82.59
2022-11-28T11:37:51.747Z,82.32
2022-11-28T11:40:55.366Z,82.18
2022-11-28T11:44:28.720Z,82.17
2022-11-28T11:47:42.620Z,82.07
2022-11-28T11:50:54.435Z,81.90
2022-11-28T11:54:06.070Z,81.84
2022-11-28T11:57:32.002Z,81.53
2022-11-28T12:00:39.924Z,81.62
2022-11-28T12:03:53.298Z,81.37
2022-11-28T12:07:00.553Z,81.30
2022-11-28T12:10:07.313Z,81.04
2022-11-28T12:13:18.697Z,80.62
2022-11-28T12:16:40.875Z,80.68
2022-11-28T12:19:54.358Z,80.54
2022-11-28T12:23:10.840Z,80.28
2022-11-28T12:26:23.266Z,80.22
2022-11-28T12:29:43.539Z,79.93
2022-11-28T12:32:55.052Z,79.60
2022-11-28T12:36:10.565Z,79.58
2022-11-28T12:39:34.855Z,79.51
2022-11-28T12:42:49.651Z,79.39
2022-11-28T12:45:59.795Z,79.18
2022-11-28T12:49:17.906Z,79.07
2022-11-28T12:52:31.507Z,78.95
2022-11-28T12:55:44.967Z,78.84
2022-11-28T12:58:57.696Z,78.68
2022-11-28T13:02:16.025Z,78.40
2022-11-28T13:05:32.637Z,78.53
2022-11-28T13:09:00.223Z,78.43
2022-11-28T13:12:17.349Z,78.31
2022-11-28T13:15:35.690Z,78.02
2022-11-28T13:18:44.602Z,78.13
2022-11-28T13:21:58.614Z,77.78
2022-11-28T13:25:09.934Z,77.64
2022-11-28T13:28:19.997Z,77.47
2022-11-28T13:31:28.988Z,77.50
2022-11-28T13:34:34.271Z,77.36
2022-11-28T13:41:43.253Z,77.02
2022-11-28T13:44:50.405Z,76.91
2022-11-28T13:47:55.747Z,76.86
2022-11-28T13:51:01.974Z,76.73
2022-11-28T13:54:47.406Z,76.85
2022-11-28T13:57:51.867Z,76.77
2022-11-28T14:01:08.599Z,76.53
2022-11-28T14:04:14.312Z,76.39
2022-11-28T14:07:26.166Z,76.40
2022-11-28T14:10:53.749Z,76.29
2022-11-28T14:14:20.599Z,76.21
2022-11-28T14:17:40.177Z,76.14
2022-11-28T14:20:54.019Z,76.18
2022-11-28T14:24:04.382Z,76.12
2022-11-28T14:27:15.734Z,76.09
2022-11-28T14:30:30.641Z,76.12
2022-11-28T14:33:37.014Z,76.06
2022-11-28T14:36:41.524Z,75.98
2022-11-28T14:39:45.448Z,75.97
2022-11-28T14:43:09.014Z,75.98
2022-11-28T14:46:30.765Z,75.91
2022-11-28T14:49:34.447Z,75.89
2022-11-28T14:52:40.561Z,75.87
2022-11-28T14:55:44.412Z,75.96
2022-11-28T14:58:49.583Z,76.08
2022-11-28T15:02:01.836Z,76.06
2022-11-28T15:05:19.706Z,76.14
2022-11-28T15:08:50.341Z,76.21
2022-11-28T15:12:10.801Z,75.98
2022-11-28T15:15:16.938Z,76.00
2022-11-28T15:18:22.243Z,76.09
2022-11-28T15:21:25.651Z,76.07
2022-11-28T15:24:31.591Z,76.17
2022-11-28T15:27:35.501Z,76.12
2022-11-28T15:30:45.368Z,75.97
2022-11-28T15:33:49.637Z,76.07
2022-11-28T15:36:53.984Z,76.02
2022-11-28T15:39:59.056Z,75.94
2022-11-28T15:43:09.485Z,75.99
2022-11-28T15:46:19.429Z,75.96
2022-11-28T15:49:29.427Z,76.17
2022-11-28T15:52:33.018Z,76.15
2022-11-28T15:55:36.525Z,76.13
2022-11-28T15:58:41.267Z,76.05
2022-11-28T16:01:45.102Z,76.16
2022-11-28T16:04:48.918Z,76.15
2022-11-28T16:07:52.585Z,76.26
2022-11-28T16:10:57.218Z,76.00
2022-11-28T16:14:08.281Z,76.18
2022-11-28T16:17:18.994Z,76.13
2022-11-28T16:20:25.351Z,76.02
2022-11-28T16:23:30.059Z,75.98
2022-11-28T16:26:35.495Z,76.03
2022-11-28T16:29:47.024Z,76.02
2022-11-28T16:32:52.138Z,75.92
2022-11-28T16:36:17.193Z,76.08
2022-11-28T16:39:20.737Z,76.22
2022-11-28T16:42:24.327Z,76.31
2022-11-28T16:45:30.666Z,76.20
2022-11-28T16:48:36.741Z,76.54
2022-11-28T16:51:41.133Z,76.37
2022-11-28T16:54:44.570Z,76.29
2022-11-28T16:57:53.769Z,76.36
2022-11-28T17:01:02.079Z,76.37
2022-11-28T17:04:06.013Z,76.42
2022-11-28T17:07:13.174Z,76.52
2022-11-28T17:10:17.092Z,76.37
2022-11-28T17:13:21.396Z,76.56
2022-11-28T17:16:25.974Z,76.50
2022-11-28T17:19:29.298Z,76.56
2022-11-28T17:22:40.787Z,76.51
2022-11-28T17:25:44.636Z,76.72
2022-11-28T17:28:48.092Z,76.54
2022-11-28T17:31:54.582Z,76.76
2022-11-28T17:35:02.775Z,76.73
2022-11-28T17:38:06.217Z,76.67
2022-11-28T17:41:13.541Z,76.63
2022-11-28T17:44:20.861Z,76.85
2022-11-28T17:47:24.148Z,76.73
2022-11-28T17:50:27.861Z,76.90
2022-11-28T17:53:31.310Z,76.98
2022-11-28T17:56:34.754Z,76.99
2022-11-28T17:59:38.067Z,76.90
2022-11-28T18:02:41.629Z,76.81
2022-11-28T18:05:46.516Z,76.84
2022-11-28T18:08:50.593Z,76.81
2022-11-28T18:11:53.984Z,77.04
2022-11-28T18:14:59.150Z,77.25
2022-11-28T18:18:03.813Z,77.03
2022-11-28T18:21:08.478Z,76.97
2022-11-28T18:24:11.866Z,77.15
2022-11-28T18:27:15.280Z,77.40
2022-11-28T18:30:19.301Z,77.26
2022-11-28T18:33:22.608Z,77.17
2022-11-28T18:36:27.069Z,77.41
2022-11-28T18:39:30.841Z,77.57
2022-11-28T18:42:34.156Z,77.21
2022-11-28T18:45:37.573Z,77.26
2022-11-28T18:48:42.986Z,77.37
2022-11-28T18:51:46.369Z,77.38
2022-11-28T18:54:49.804Z,77.49
2022-11-28T18:57:53.164Z,77.81
2022-11-28T19:00:56.756Z,77.88
2022-11-28T19:04:02.076Z,77.59
2022-11-28T19:07:05.557Z,77.65
2022-11-28T19:10:12.033Z,77.67
2022-11-28T19:13:15.668Z,77.61
2022-11-28T19:16:20.808Z,77.69
2022-11-28T19:19:24.345Z,77.46
2022-11-28T19:22:27.752Z,77.66
2022-11-28T19:25:31.970Z,77.66
2022-11-28T19:28:36.969Z,77.57
2022-11-28T19:31:41.300Z,77.94
2022-11-28T19:34:44.821Z,77.93
2022-11-28T19:37:48.137Z,77.88
2022-11-28T19:40:51.561Z,77.88
2022-11-28T19:43:55.285Z,77.86
2022-11-28T19:46:58.811Z,77.91
2022-11-28T19:50:02.145Z,77.95
2022-11-28T19:53:05.632Z,77.94
2022-11-28T19:56:13.199Z,77.75
2022-11-28T19:59:17.595Z,77.82
2022-11-28T20:02:22.818Z,77.85
2022-11-28T20:05:26.333Z,77.84
2022-11-28T20:08:29.798Z,77.71
2022-11-28T20:11:34.852Z,77.85
2022-11-28T20:14:38.277Z,77.92
2022-11-28T20:17:41.837Z,77.85
2022-11-28T20:20:45.334Z,78.24
2022-11-28T20:23:49.822Z,78.11
2022-11-28T20:26:53.464Z,78.16
2022-11-28T20:29:57.069Z,78.24
2022-11-28T20:33:00.498Z,78.10
2022-11-28T20:36:10.223Z,78.14
2022-11-28T20:39:13.728Z,78.02
2022-11-28T20:42:17.522Z,78.00
2022-11-28T20:45:21.026Z,78.28
2022-11-28T20:48:24.418Z,78.13
2022-11-28T20:51:29.835Z,78.05
2022-11-28T20:54:33.194Z,78.12
2022-11-28T20:57:36.569Z,78.22
2022-11-28T21:00:39.891Z,78.33
2022-11-28T21:03:43.409Z,78.13
2022-11-28T21:06:48.527Z,78.11
2022-11-28T21:09:53.477Z,78.36
2022-11-28T21:12:56.942Z,78.42
2022-11-28T21:16:06.639Z,78.25
2022-11-28T21:19:10.395Z,78.07
2022-11-28T21:22:13.676Z,78.28
2022-11-28T21:25:17.187Z,78.09
2022-11-28T21:28:20.488Z,78.16
2022-11-28T21:31:26.148Z,78.15
2022-11-28T21:34:29.643Z,78.11
2022-11-28T21:37:33.247Z,78.34
2022-11-28T21:40:36.646Z,78.14
2022-11-28T21:43:40.148Z,78.27
2022-11-28T21:46:43.883Z,78.22
2022-11-28T21:49:47.268Z,78.26
2022-11-28T21:52:50.802Z,78.23
2022-11-28T21:55:54.869Z,78.27
2022-11-28T21:58:58.268Z,78.29
2022-11-28T22:02:02.664Z,78.14
2022-11-28T22:05:09.547Z,78.18
2022-11-28T22:08:12.974Z,78.32
2022-11-28T22:11:17.063Z,78.45
2022-11-28T22:14:20.487Z,78.24
2022-11-28T22:17:24.498Z,78.19
2022-11-28T22:20:27.891Z,78.25
2022-11-28T22:23:34.521Z,78.38
2022-11-28T22:26:37.957Z,78.22
2022-11-28T22:29:41.374Z,78.36
2022-11-28T22:32:44.872Z,78.34
2022-11-28T22:35:48.217Z,78.33
2022-11-28T22:38:56.097Z,78.29
2022-11-28T22:41:59.726Z,78.28
2022-11-28T22:45:03.758Z,78.44
2022-11-28T22:48:07.997Z,78.54
2022-11-28T22:51:14.136Z,78.54
2022-11-28T22:54:17.549Z,78.42
2022-11-28T22:57:21.025Z,78.46
2022-11-28T23:00:24.463Z,78.36
2022-11-28T23:03:28.132Z,78.28
2022-11-28T23:06:34.169Z,78.45
2022-11-28T23:09:37.461Z,78.26
2022-11-28T23:12:41.446Z,78.31
2022-11-28T23:15:49.740Z,78.47
2022-11-28T23:18:58.255Z,78.38
2022-11-28T23:22:01.808Z,78.54
2022-11-28T23:25:06.529Z,78.35
2022-11-28T23:28:09.909Z,78.28
2022-11-28T23:31:16.022Z,78.31
2022-11-28T23:34:19.348Z,78.32
2022-11-28T23:37:22.773Z,78.44
2022-11-28T23:40:26.376Z,78.73
2022-11-28T23:43:29.879Z,78.48
2022-11-28T23:46:34.037Z,78.45
2022-11-28T23:49:37.509Z,78.48
2022-11-28T23:52:40.893Z,78.37
2022-11-28T23:55:44.396Z,78.47
2022-11-28T23:58:48.608Z,78.52
